Flight Track Log - Related Links

Times and Time Zones

All times are in EDT time to prevent confusion due to time zone crossing. See the N340WJ flight status page for this flight to view local times or setup timezone preferences in your user account.

Time Position Orientation Groundspeed Altitude Reporting Facility
EDT Latitude Longitude Course Direction KTS MPH feet Rate Location/Type
Mon 05:03:42 PM 45.1500 -93.1833 325° Northwest 133 153 1,800  Level Minneapolis TRACON
Mon 05:04:48 PM 45.1833 -93.2167 325° Northwest 138 159 2,800 783 Climbing Minneapolis TRACON
Mon 05:05:14 PM 45.1975 -93.2283 330° Northwest 141 162 3,000 205 Climbing Minneapolis Center
Mon 05:06:16 PM 45.2208 -93.2808 302° West 157 181 3,100 435 Climbing Minneapolis Center
Mon 05:07:18 PM 45.2472 -93.3297 307° West 155 178 3,900 823 Climbing Minneapolis Center
Mon 05:08:20 PM 45.2678 -93.3719 305° West 134 154 4,800 780 Climbing Minneapolis Center
Mon 05:09:21 PM 45.2917 -93.4172 307° West 142 163 5,500 634 Climbing Minneapolis Center
Mon 05:10:23 PM 45.3214 -93.4756 306° West 152 175 6,100 290 Climbing Minneapolis Center
Mon 05:11:25 PM 45.3508 -93.5339 306° West 180 207 6,100 339 Level Minneapolis Center
Mon 05:12:27 PM 45.3789 -93.5894 306° West 173 199 6,800 677 Climbing Minneapolis Center
Mon 05:13:29 PM 45.4044 -93.6392 306° West 158 182 7,500 677 Climbing Minneapolis Center
Mon 05:14:31 PM 45.4297 -93.6886 306° West 157 181 8,200 774 Climbing Minneapolis Center
Mon 05:15:33 PM 45.4586 -93.7481 305° West 152 175 9,100 726 Climbing Minneapolis Center
Mon 05:16:35 PM 45.4836 -93.7975 306° West 155 178 9,700 484 Climbing Minneapolis Center
Mon 05:17:37 PM 45.5100 -93.8503 306° West 164 189 10,100 194 Climbing Minneapolis Center
Mon 05:18:39 PM 45.5392 -93.9081 306° West 181 208 10,100  Level Minneapolis Center
Mon 05:19:41 PM 45.5678 -93.9653 306° West 179 206 10,100  Level Minneapolis Center
Mon 05:20:43 PM 45.5964 -94.0239 305° West 180 207 10,100  Level Minneapolis Center
Mon 05:21:45 PM 45.6322 -94.0936 306° West 180 207 10,100  Level Minneapolis Center
Mon 05:22:47 PM 45.6606 -94.1525 305° West 180 207 10,100  Level Minneapolis Center
Mon 05:23:49 PM 45.6906 -94.2100 303° West 179 206 10,100  Level Minneapolis Center
Mon 05:24:00 PM 45.6930 -94.2228 303° West  Level FlightAware Approximate
Mon 05:24:51 PM 45.7200 -94.2697 305° West 183 211 10,100  Level Minneapolis Center
Mon 05:25:53 PM 45.7483 -94.3286 305° West 182 209 10,100 48 Level Minneapolis Center
Mon 05:26:55 PM 45.7769 -94.3872 305° West 180 207 10,200  Climbing Minneapolis Center
Mon 05:27:57 PM 45.8119 -94.4575 306° West 181 208 10,100 -48 Descending Minneapolis Center
Mon 05:28:59 PM 45.8414 -94.5186 305° West 185 213 10,100  Level Minneapolis Center
Mon 05:30:01 PM 45.8706 -94.5772 306° West 183 211 10,100  Level Minneapolis Center
Mon 05:31:03 PM 45.8994 -94.6361 305° West 181 208 10,100  Level Minneapolis Center
Mon 05:32:05 PM 45.9286 -94.6967 305° West 183 211 10,100  Level Minneapolis Center
Mon 05:33:07 PM 45.9636 -94.7669 306° West 183 211 10,100  Level Minneapolis Center
Mon 05:34:09 PM 45.9925 -94.8278 304° West 184 212 10,100  Level Minneapolis Center
Mon 05:35:11 PM 46.0214 -94.8886 304° West 185 213 10,100 49 Level Minneapolis Center
Mon 05:36:12 PM 46.0500 -94.9489 304° West 183 211 10,200  Climbing Minneapolis Center
Mon 05:37:14 PM 46.0797 -95.0103 305° West 187 215 10,100 -48 Descending Minneapolis Center
Mon 05:38:16 PM 46.1139 -95.0792 306° West 186 214 10,100  Level Minneapolis Center
Mon 05:39:18 PM 46.1425 -95.1397 304° West 185 213 10,100  Level Minneapolis Center
Mon 05:40:20 PM 46.1714 -95.2003 305° West 185 213 10,100 48 Level Minneapolis Center
Mon 05:41:22 PM 46.2008 -95.2644 304° West 187 215 10,200 48 Climbing Minneapolis Center
Mon 05:42:24 PM 46.2303 -95.3258 305° West 188 216 10,200 -49 Level Minneapolis Center
Mon 05:43:25 PM 46.2536 -95.3753 304° West 187 215 10,100 -49 Descending Minneapolis Center
Mon 05:44:27 PM 46.2933 -95.4614 304° West 186 214 10,100  Level Minneapolis Center
Mon 05:45:29 PM 46.3219 -95.5208 305° West 184 212 10,100 48 Level Minneapolis Center
Mon 05:46:31 PM 46.3503 -95.5808 304° West 180 207 10,200 48 Climbing Minneapolis Center
Mon 05:47:33 PM 46.3775 -95.6408 303° West 181 208 10,200 -49 Level Minneapolis Center
Mon 05:48:34 PM 46.4067 -95.6989 306° West 178 205 10,100  Descending Minneapolis Center
Mon 05:49:36 PM 46.4350 -95.7581 305° West 179 206 10,200 -145 Climbing Minneapolis Center
Mon 05:50:38 PM 46.4639 -95.8247 302° West 175 201 9,800 -435 Descending Minneapolis Center
Mon 05:51:40 PM 46.4917 -95.8831 305° West 182 209 9,300 -484 Descending Minneapolis Center
Mon 05:52:42 PM 46.5219 -95.9525 302° West 195 224 8,800 -444 Descending Minneapolis Center
Mon 05:53:55 PM 46.5531 -96.0167 305° West 188 216 8,300 -485 Descending Minneapolis Center
Mon 05:54:58 PM 46.5906 -96.0925 306° West 191 220 7,700 -581 Descending Minneapolis Center
Mon 05:55:59 PM 46.6272 -96.1558 310° West 196 226 7,100 -537 Descending Minneapolis Center
Mon 05:57:01 PM 46.6636 -96.2189 310° West 197 227 6,600 -532 Descending Minneapolis Center
Mon 05:58:03 PM 46.7008 -96.2825 310° West 199 229 6,000 -581 Descending Minneapolis Center
Mon 05:59:05 PM 46.7389 -96.3481 310° West 201 231 5,400 -484 Descending Minneapolis Center
Mon 06:00:07 PM 46.7761 -96.4125 310° West 202 232 5,000 -195 Descending Minneapolis Center
Mon 06:01:08 PM 46.8078 -96.4656 311° West 186 214 5,000  Level Minneapolis Center
Mon 06:02:10 PM 46.8411 -96.5233 310° West 178 205 5,000  Level Minneapolis Center
Mon 06:03:12 PM 46.8736 -96.5803 310° West 176 203 5,000 -98 Level Minneapolis Center
Mon 06:04:13 PM 46.8989 -96.6239 310° West 173 199 4,800 -532 Descending Minneapolis Center
Mon 06:05:16 PM 46.9433 -96.7039 309° West 197 227 3,900 -720 Descending Minneapolis Center
Mon 06:06:18 PM 46.9597 -96.7614 293° West 140 161 3,300 -976 Descending Minneapolis Center
Mon 06:07:19 PM 46.9636 -96.8103 277° West 126 145 1,900 -1,377 Descending Minneapolis Center

Login

Don't have an account? Register now (free) for customized features, flight alerts, and more!